sensor_id;sensor_type;location;lat;lon;timestamp;P1;durP1;ratioP1;P2;durP2;ratioP2
68438;SDS011;55421;51.600;5.718;2022-09-03T00:02:25;5.80;;;3.10;;
68438;SDS011;55421;51.600;5.718;2022-09-03T00:08:14;7.90;;;2.70;;
68438;SDS011;55421;51.600;5.718;2022-09-03T00:10:53;4.00;;;3.20;;
68438;SDS011;55421;51.600;5.718;2022-09-03T00:13:30;8.30;;;3.20;;
68438;SDS011;55421;51.600;5.718;2022-09-03T00:16:05;5.60;;;3.10;;
68438;SDS011;55421;51.600;5.718;2022-09-03T00:18:43;4.20;;;3.10;;
68438;SDS011;55421;51.600;5.718;2022-09-03T00:21:17;9.50;;;3.50;;
68438;SDS011;55421;51.600;5.718;2022-09-03T00:24:14;5.20;;;3.40;;
68438;SDS011;55421;51.600;5.718;2022-09-03T00:26:49;4.90;;;3.50;;
68438;SDS011;55421;51.600;5.718;2022-09-03T00:29:24;7.50;;;3.40;;
68438;SDS011;55421;51.600;5.718;2022-09-03T00:32:00;4.00;;;3.20;;
68438;SDS011;55421;51.600;5.718;2022-09-03T00:34:33;3.10;;;2.70;;
68438;SDS011;55421;51.600;5.718;2022-09-03T00:37:04;11.80;;;3.60;;
68438;SDS011;55421;51.600;5.718;2022-09-03T00:39:30;6.50;;;4.00;;
68438;SDS011;55421;51.600;5.718;2022-09-03T00:44:56;4.90;;;3.50;;
68438;SDS011;55421;51.600;5.718;2022-09-03T00:56:40;4.90;;;3.70;;
68438;SDS011;55421;51.600;5.718;2022-09-03T00:59:32;5.20;;;3.50;;
68438;SDS011;55421;51.600;5.718;2022-09-03T01:02:36;5.70;;;3.50;;
68438;SDS011;55421;51.600;5.718;2022-09-03T01:14:47;5.10;;;3.30;;
68438;SDS011;55421;51.600;5.718;2022-09-03T01:17:41;4.20;;;3.40;;
68438;SDS011;55421;51.600;5.718;2022-09-03T01:20:37;9.50;;;3.40;;
68438;SDS011;55421;51.600;5.718;2022-09-03T01:29:33;7.60;;;4.10;;
68438;SDS011;55421;51.600;5.718;2022-09-03T01:32:14;5.40;;;3.50;;
68438;SDS011;55421;51.600;5.718;2022-09-03T01:43:33;6.40;;;4.00;;
68438;SDS011;55421;51.600;5.718;2022-09-03T01:46:18;4.70;;;3.60;;
68438;SDS011;55421;51.600;5.718;2022-09-03T01:51:41;5.60;;;3.70;;
68438;SDS011;55421;51.600;5.718;2022-09-03T01:57:13;5.30;;;3.60;;
68438;SDS011;55421;51.600;5.718;2022-09-03T02:00:13;6.80;;;3.80;;
68438;SDS011;55421;51.600;5.718;2022-09-03T02:02:44;5.00;;;3.30;;
68438;SDS011;55421;51.600;5.718;2022-09-03T02:05:16;6.60;;;3.60;;
68438;SDS011;55421;51.600;5.718;2022-09-03T02:07:49;4.90;;;3.70;;
68438;SDS011;55421;51.600;5.718;2022-09-03T02:13:30;4.00;;;3.60;;
68438;SDS011;55421;51.600;5.718;2022-09-03T02:16:05;8.20;;;3.80;;
68438;SDS011;55421;51.600;5.718;2022-09-03T02:18:43;5.50;;;3.70;;
68438;SDS011;55421;51.600;5.718;2022-09-03T02:21:17;7.20;;;3.60;;
68438;SDS011;55421;51.600;5.718;2022-09-03T02:23:47;7.50;;;3.70;;
68438;SDS011;55421;51.600;5.718;2022-09-03T02:26:18;4.70;;;3.70;;
68438;SDS011;55421;51.600;5.718;2022-09-03T02:28:48;6.40;;;4.00;;
68438;SDS011;55421;51.600;5.718;2022-09-03T02:31:16;5.00;;;4.10;;
68438;SDS011;55421;51.600;5.718;2022-09-03T02:33:45;7.30;;;4.00;;
68438;SDS011;55421;51.600;5.718;2022-09-03T02:36:16;4.40;;;4.00;;
68438;SDS011;55421;51.600;5.718;2022-09-03T02:38:46;5.60;;;3.70;;
68438;SDS011;55421;51.600;5.718;2022-09-03T02:41:13;9.10;;;4.10;;
68438;SDS011;55421;51.600;5.718;2022-09-03T02:44:07;5.60;;;3.50;;
68438;SDS011;55421;51.600;5.718;2022-09-03T02:46:47;6.50;;;3.60;;
68438;SDS011;55421;51.600;5.718;2022-09-03T02:49:18;5.60;;;3.60;;
68438;SDS011;55421;51.600;5.718;2022-09-03T02:51:45;6.00;;;3.70;;
68438;SDS011;55421;51.600;5.718;2022-09-03T02:54:11;6.20;;;3.80;;
68438;SDS011;55421;51.600;5.718;2022-09-03T02:56:39;8.70;;;3.80;;
68438;SDS011;55421;51.600;5.718;2022-09-03T02:59:07;6.50;;;4.00;;
68438;SDS011;55421;51.600;5.718;2022-09-03T03:01:34;7.40;;;3.60;;
68438;SDS011;55421;51.600;5.718;2022-09-03T03:04:02;5.70;;;4.00;;
68438;SDS011;55421;51.600;5.718;2022-09-03T03:06:28;6.10;;;3.70;;
68438;SDS011;55421;51.600;5.718;2022-09-03T03:08:54;4.50;;;3.80;;
68438;SDS011;55421;51.600;5.718;2022-09-03T03:11:22;7.20;;;3.50;;
68438;SDS011;55421;51.600;5.718;2022-09-03T03:13:52;5.40;;;3.40;;
68438;SDS011;55421;51.600;5.718;2022-09-03T03:16:18;7.00;;;3.60;;
68438;SDS011;55421;51.600;5.718;2022-09-03T03:18:45;5.00;;;3.80;;
68438;SDS011;55421;51.600;5.718;2022-09-03T03:21:14;4.10;;;3.40;;
68438;SDS011;55421;51.600;5.718;2022-09-03T03:23:44;9.00;;;3.90;;
68438;SDS011;55421;51.600;5.718;2022-09-03T03:26:13;6.90;;;3.70;;
68438;SDS011;55421;51.600;5.718;2022-09-03T03:28:44;4.80;;;3.40;;
68438;SDS011;55421;51.600;5.718;2022-09-03T03:31:14;6.70;;;3.60;;
68438;SDS011;55421;51.600;5.718;2022-09-03T03:33:53;11.00;;;3.90;;
68438;SDS011;55421;51.600;5.718;2022-09-03T03:36:22;4.20;;;3.60;;
68438;SDS011;55421;51.600;5.718;2022-09-03T03:38:55;6.90;;;3.40;;
68438;SDS011;55421;51.600;5.718;2022-09-03T03:41:27;5.70;;;3.50;;
68438;SDS011;55421;51.600;5.718;2022-09-03T03:43:58;5.60;;;3.90;;
68438;SDS011;55421;51.600;5.718;2022-09-03T03:46:32;6.80;;;3.70;;
68438;SDS011;55421;51.600;5.718;2022-09-03T03:49:00;5.90;;;3.80;;
68438;SDS011;55421;51.600;5.718;2022-09-03T03:51:27;4.20;;;3.20;;
68438;SDS011;55421;51.600;5.718;2022-09-03T03:53:56;5.60;;;3.70;;
68438;SDS011;55421;51.600;5.718;2022-09-03T03:56:25;4.90;;;3.60;;
68438;SDS011;55421;51.600;5.718;2022-09-03T03:58:53;4.80;;;3.90;;
68438;SDS011;55421;51.600;5.718;2022-09-03T04:01:22;4.00;;;3.40;;
68438;SDS011;55421;51.600;5.718;2022-09-03T04:03:50;5.20;;;3.70;;
68438;SDS011;55421;51.600;5.718;2022-09-03T04:06:19;7.80;;;3.70;;
68438;SDS011;55421;51.600;5.718;2022-09-03T04:08:48;5.70;;;3.30;;
68438;SDS011;55421;51.600;5.718;2022-09-03T04:11:17;6.20;;;3.70;;
68438;SDS011;55421;51.600;5.718;2022-09-03T04:13:47;5.90;;;3.80;;
68438;SDS011;55421;51.600;5.718;2022-09-03T04:16:19;6.70;;;3.90;;
68438;SDS011;55421;51.600;5.718;2022-09-03T04:18:51;6.40;;;3.80;;
68438;SDS011;55421;51.600;5.718;2022-09-03T04:21:21;5.00;;;3.70;;
68438;SDS011;55421;51.600;5.718;2022-09-03T04:23:50;4.50;;;3.70;;
68438;SDS011;55421;51.600;5.718;2022-09-03T04:26:20;5.20;;;4.00;;
68438;SDS011;55421;51.600;5.718;2022-09-03T04:28:48;6.60;;;3.30;;
68438;SDS011;55421;51.600;5.718;2022-09-03T04:31:17;5.10;;;3.70;;
68438;SDS011;55421;51.600;5.718;2022-09-03T04:33:44;5.10;;;4.20;;
68438;SDS011;55421;51.600;5.718;2022-09-03T04:36:16;4.60;;;3.60;;
68438;SDS011;55421;51.600;5.718;2022-09-03T04:38:45;7.40;;;4.20;;
68438;SDS011;55421;51.600;5.718;2022-09-03T04:41:17;4.10;;;3.40;;
68438;SDS011;55421;51.600;5.718;2022-09-03T04:43:46;3.90;;;3.40;;
68438;SDS011;55421;51.600;5.718;2022-09-03T04:46:14;6.10;;;3.70;;
68438;SDS011;55421;51.600;5.718;2022-09-03T04:48:41;7.30;;;3.90;;
68438;SDS011;55421;51.600;5.718;2022-09-03T04:51:11;6.10;;;3.60;;
68438;SDS011;55421;51.600;5.718;2022-09-03T04:53:41;6.80;;;3.80;;
68438;SDS011;55421;51.600;5.718;2022-09-03T04:56:17;7.20;;;3.60;;
68438;SDS011;55421;51.600;5.718;2022-09-03T04:58:46;7.60;;;3.90;;
68438;SDS011;55421;51.600;5.718;2022-09-03T05:01:21;6.30;;;3.90;;
68438;SDS011;55421;51.600;5.718;2022-09-03T05:03:48;7.80;;;3.50;;
68438;SDS011;55421;51.600;5.718;2022-09-03T05:06:19;4.00;;;3.60;;
68438;SDS011;55421;51.600;5.718;2022-09-03T05:08:49;5.90;;;3.20;;
68438;SDS011;55421;51.600;5.718;2022-09-03T05:11:18;5.80;;;3.80;;
68438;SDS011;55421;51.600;5.718;2022-09-03T05:13:50;8.00;;;3.70;;
68438;SDS011;55421;51.600;5.718;2022-09-03T05:16:18;6.70;;;4.00;;
68438;SDS011;55421;51.600;5.718;2022-09-03T05:18:46;5.30;;;4.20;;
68438;SDS011;55421;51.600;5.718;2022-09-03T05:21:15;7.80;;;3.80;;
68438;SDS011;55421;51.600;5.718;2022-09-03T05:23:45;7.90;;;4.00;;
68438;SDS011;55421;51.600;5.718;2022-09-03T05:26:17;5.80;;;4.00;;
68438;SDS011;55421;51.600;5.718;2022-09-03T05:28:47;8.70;;;3.90;;
68438;SDS011;55421;51.600;5.718;2022-09-03T05:31:18;5.60;;;3.90;;
68438;SDS011;55421;51.600;5.718;2022-09-03T05:33:49;7.00;;;3.90;;
68438;SDS011;55421;51.600;5.718;2022-09-03T05:36:19;12.90;;;3.90;;
68438;SDS011;55421;51.600;5.718;2022-09-03T05:38:51;4.60;;;3.50;;
68438;SDS011;55421;51.600;5.718;2022-09-03T05:41:21;6.40;;;3.50;;
68438;SDS011;55421;51.600;5.718;2022-09-03T05:43:53;5.70;;;3.60;;
68438;SDS011;55421;51.600;5.718;2022-09-03T05:46:22;7.50;;;4.00;;
68438;SDS011;55421;51.600;5.718;2022-09-03T05:49:00;6.40;;;4.10;;
68438;SDS011;55421;51.600;5.718;2022-09-03T05:51:29;6.40;;;3.80;;
68438;SDS011;55421;51.600;5.718;2022-09-03T05:53:56;7.00;;;3.60;;
68438;SDS011;55421;51.600;5.718;2022-09-03T05:56:27;6.20;;;3.70;;
68438;SDS011;55421;51.600;5.718;2022-09-03T05:58:57;5.60;;;3.40;;
68438;SDS011;55421;51.600;5.718;2022-09-03T06:01:34;5.20;;;3.60;;
68438;SDS011;55421;51.600;5.718;2022-09-03T06:04:05;5.80;;;3.40;;
68438;SDS011;55421;51.600;5.718;2022-09-03T06:06:36;6.40;;;3.50;;
68438;SDS011;55421;51.600;5.718;2022-09-03T06:09:07;8.70;;;3.40;;
68438;SDS011;55421;51.600;5.718;2022-09-03T06:11:37;5.80;;;3.20;;
68438;SDS011;55421;51.600;5.718;2022-09-03T06:14:06;10.80;;;3.60;;
68438;SDS011;55421;51.600;5.718;2022-09-03T06:16:36;3.80;;;2.80;;
68438;SDS011;55421;51.600;5.718;2022-09-03T06:21:41;8.50;;;3.00;;
68438;SDS011;55421;51.600;5.718;2022-09-03T06:24:17;8.60;;;3.60;;
68438;SDS011;55421;51.600;5.718;2022-09-03T06:26:52;7.70;;;3.40;;
68438;SDS011;55421;51.600;5.718;2022-09-03T06:29:18;7.00;;;2.90;;
68438;SDS011;55421;51.600;5.718;2022-09-03T06:31:45;4.50;;;3.20;;
68438;SDS011;55421;51.600;5.718;2022-09-03T06:34:13;3.90;;;2.90;;
68438;SDS011;55421;51.600;5.718;2022-09-03T06:36:41;3.30;;;3.00;;
68438;SDS011;55421;51.600;5.718;2022-09-03T06:39:07;3.90;;;3.00;;
68438;SDS011;55421;51.600;5.718;2022-09-03T06:41:34;3.60;;;3.10;;
68438;SDS011;55421;51.600;5.718;2022-09-03T06:44:03;5.20;;;2.80;;
68438;SDS011;55421;51.600;5.718;2022-09-03T06:49:00;4.60;;;2.90;;
68438;SDS011;55421;51.600;5.718;2022-09-03T06:51:28;6.60;;;3.10;;
68438;SDS011;55421;51.600;5.718;2022-09-03T06:54:05;8.10;;;3.20;;
68438;SDS011;55421;51.600;5.718;2022-09-03T06:56:34;4.30;;;2.80;;
68438;SDS011;55421;51.600;5.718;2022-09-03T06:59:12;4.10;;;3.00;;
68438;SDS011;55421;51.600;5.718;2022-09-03T07:01:41;6.70;;;3.30;;
68438;SDS011;55421;51.600;5.718;2022-09-03T07:04:09;4.50;;;3.10;;
68438;SDS011;55421;51.600;5.718;2022-09-03T07:06:38;4.00;;;3.10;;
68438;SDS011;55421;51.600;5.718;2022-09-03T07:09:06;3.30;;;2.60;;
68438;SDS011;55421;51.600;5.718;2022-09-03T07:11:34;4.60;;;3.20;;
68438;SDS011;55421;51.600;5.718;2022-09-03T07:14:03;5.00;;;2.40;;
68438;SDS011;55421;51.600;5.718;2022-09-03T07:16:35;3.50;;;2.10;;
68438;SDS011;55421;51.600;5.718;2022-09-03T07:19:04;6.90;;;2.20;;
68438;SDS011;55421;51.600;5.718;2022-09-03T07:21:32;5.30;;;2.40;;
68438;SDS011;55421;51.600;5.718;2022-09-03T07:26:32;8.20;;;2.50;;
68438;SDS011;55421;51.600;5.718;2022-09-03T07:29:01;6.60;;;2.00;;
68438;SDS011;55421;51.600;5.718;2022-09-03T07:31:37;8.00;;;2.60;;
68438;SDS011;55421;51.600;5.718;2022-09-03T07:34:06;6.40;;;2.60;;
68438;SDS011;55421;51.600;5.718;2022-09-03T07:36:39;3.40;;;1.90;;
68438;SDS011;55421;51.600;5.718;2022-09-03T07:39:13;4.40;;;2.70;;
68438;SDS011;55421;51.600;5.718;2022-09-03T07:41:41;8.30;;;2.50;;
68438;SDS011;55421;51.600;5.718;2022-09-03T07:46:40;15.90;;;2.90;;
68438;SDS011;55421;51.600;5.718;2022-09-03T07:49:08;5.40;;;2.60;;
68438;SDS011;55421;51.600;5.718;2022-09-03T07:51:37;5.90;;;2.30;;
68438;SDS011;55421;51.600;5.718;2022-09-03T07:54:07;3.80;;;2.30;;
68438;SDS011;55421;51.600;5.718;2022-09-03T07:56:36;3.40;;;1.90;;
68438;SDS011;55421;51.600;5.718;2022-09-03T07:59:05;4.70;;;2.50;;
68438;SDS011;55421;51.600;5.718;2022-09-03T08:01:32;3.30;;;2.40;;
68438;SDS011;55421;51.600;5.718;2022-09-03T08:04:00;5.80;;;2.50;;
68438;SDS011;55421;51.600;5.718;2022-09-03T08:06:32;6.00;;;2.70;;
68438;SDS011;55421;51.600;5.718;2022-09-03T08:09:04;6.30;;;2.50;;
68438;SDS011;55421;51.600;5.718;2022-09-03T08:11:35;6.70;;;2.60;;
68438;SDS011;55421;51.600;5.718;2022-09-03T08:14:08;3.00;;;2.30;;
68438;SDS011;55421;51.600;5.718;2022-09-03T08:16:38;3.40;;;2.00;;
68438;SDS011;55421;51.600;5.718;2022-09-03T08:19:10;5.40;;;2.40;;
68438;SDS011;55421;51.600;5.718;2022-09-03T08:21:38;6.30;;;2.30;;
68438;SDS011;55421;51.600;5.718;2022-09-03T08:24:07;4.80;;;2.30;;
68438;SDS011;55421;51.600;5.718;2022-09-03T08:26:36;3.60;;;2.60;;
68438;SDS011;55421;51.600;5.718;2022-09-03T08:29:06;9.30;;;2.50;;
68438;SDS011;55421;51.600;5.718;2022-09-03T08:31:33;4.80;;;1.80;;
68438;SDS011;55421;51.600;5.718;2022-09-03T08:34:04;4.40;;;2.20;;
68438;SDS011;55421;51.600;5.718;2022-09-03T08:39:03;13.00;;;2.70;;
68438;SDS011;55421;51.600;5.718;2022-09-03T08:49:54;6.60;;;2.50;;
68438;SDS011;55421;51.600;5.718;2022-09-03T08:52:44;2.40;;;2.20;;
68438;SDS011;55421;51.600;5.718;2022-09-03T08:55:30;15.80;;;2.30;;
68438;SDS011;55421;51.600;5.718;2022-09-03T08:58:19;13.10;;;2.60;;
68438;SDS011;55421;51.600;5.718;2022-09-03T09:00:56;8.60;;;2.50;;
68438;SDS011;55421;51.600;5.718;2022-09-03T09:07:13;47.90;;;4.10;;
68438;SDS011;55421;51.600;5.718;2022-09-03T09:12:38;4.80;;;1.90;;
68438;SDS011;55421;51.600;5.718;2022-09-03T09:15:39;3.20;;;2.30;;
68438;SDS011;55421;51.600;5.718;2022-09-03T09:18:13;4.10;;;2.10;;
68438;SDS011;55421;51.600;5.718;2022-09-03T09:20:53;6.50;;;2.20;;
68438;SDS011;55421;51.600;5.718;2022-09-03T09:23:45;3.00;;;1.90;;
68438;SDS011;55421;51.600;5.718;2022-09-03T09:26:16;4.30;;;2.10;;
68438;SDS011;55421;51.600;5.718;2022-09-03T09:28:47;10.60;;;2.00;;
68438;SDS011;55421;51.600;5.718;2022-09-03T09:31:26;3.10;;;1.90;;
68438;SDS011;55421;51.600;5.718;2022-09-03T09:34:06;5.10;;;2.30;;
68438;SDS011;55421;51.600;5.718;2022-09-03T09:36:41;2.80;;;2.10;;
68438;SDS011;55421;51.600;5.718;2022-09-03T09:39:12;4.00;;;2.00;;
68438;SDS011;55421;51.600;5.718;2022-09-03T09:41:42;6.40;;;2.20;;
68438;SDS011;55421;51.600;5.718;2022-09-03T09:44:18;4.30;;;1.80;;
68438;SDS011;55421;51.600;5.718;2022-09-03T09:46:47;16.80;;;2.30;;
68438;SDS011;55421;51.600;5.718;2022-09-03T09:49:31;2.60;;;1.80;;
68438;SDS011;55421;51.600;5.718;2022-09-03T09:52:07;4.80;;;1.70;;
68438;SDS011;55421;51.600;5.718;2022-09-03T09:54:41;4.00;;;2.10;;
68438;SDS011;55421;51.600;5.718;2022-09-03T09:57:16;3.10;;;2.00;;
68438;SDS011;55421;51.600;5.718;2022-09-03T09:59:47;3.00;;;1.80;;
68438;SDS011;55421;51.600;5.718;2022-09-03T10:02:23;4.50;;;2.20;;
68438;SDS011;55421;51.600;5.718;2022-09-03T10:05:00;3.60;;;1.90;;
68438;SDS011;55421;51.600;5.718;2022-09-03T10:07:39;4.20;;;1.80;;
68438;SDS011;55421;51.600;5.718;2022-09-03T10:10:14;3.50;;;1.80;;
68438;SDS011;55421;51.600;5.718;2022-09-03T10:12:49;5.00;;;2.10;;
68438;SDS011;55421;51.600;5.718;2022-09-03T10:16:03;2.60;;;1.80;;
68438;SDS011;55421;51.600;5.718;2022-09-03T10:18:52;3.60;;;2.00;;
68438;SDS011;55421;51.600;5.718;2022-09-03T10:21:41;5.60;;;1.90;;
68438;SDS011;55421;51.600;5.718;2022-09-03T10:27:21;5.10;;;2.20;;
68438;SDS011;55421;51.600;5.718;2022-09-03T10:29:49;5.90;;;2.00;;
68438;SDS011;55421;51.600;5.718;2022-09-03T10:38:27;2.80;;;2.00;;
68438;SDS011;55421;51.600;5.718;2022-09-03T10:41:04;5.70;;;2.00;;
68438;SDS011;55421;51.600;5.718;2022-09-03T10:44:14;4.50;;;1.80;;
68438;SDS011;55421;51.600;5.718;2022-09-03T10:47:16;4.70;;;1.90;;
68438;SDS011;55421;51.600;5.718;2022-09-03T10:50:13;3.40;;;1.80;;
68438;SDS011;55421;51.600;5.718;2022-09-03T10:53:09;4.40;;;2.10;;
68438;SDS011;55421;51.600;5.718;2022-09-03T10:58:49;2.20;;;1.80;;
68438;SDS011;55421;51.600;5.718;2022-09-03T11:01:36;4.90;;;1.70;;
68438;SDS011;55421;51.600;5.718;2022-09-03T11:04:18;2.60;;;1.70;;
68438;SDS011;55421;51.600;5.718;2022-09-03T11:06:53;3.60;;;1.60;;
68438;SDS011;55421;51.600;5.718;2022-09-03T11:12:16;2.10;;;1.80;;
68438;SDS011;55421;51.600;5.718;2022-09-03T11:14:56;2.40;;;1.80;;
68438;SDS011;55421;51.600;5.718;2022-09-03T11:17:39;8.50;;;1.80;;
68438;SDS011;55421;51.600;5.718;2022-09-03T11:20:18;4.00;;;1.70;;
68438;SDS011;55421;51.600;5.718;2022-09-03T11:22:49;3.10;;;1.70;;
68438;SDS011;55421;51.600;5.718;2022-09-03T11:25:21;3.20;;;1.80;;
68438;SDS011;55421;51.600;5.718;2022-09-03T11:28:01;2.90;;;2.00;;
68438;SDS011;55421;51.600;5.718;2022-09-03T11:30:48;5.20;;;1.60;;
68438;SDS011;55421;51.600;5.718;2022-09-03T11:33:28;5.10;;;2.10;;
68438;SDS011;55421;51.600;5.718;2022-09-03T11:35:59;2.20;;;1.80;;
68438;SDS011;55421;51.600;5.718;2022-09-03T11:38:28;2.10;;;1.80;;
68438;SDS011;55421;51.600;5.718;2022-09-03T11:41:02;5.70;;;1.80;;
68438;SDS011;55421;51.600;5.718;2022-09-03T11:43:33;10.30;;;2.20;;
68438;SDS011;55421;51.600;5.718;2022-09-03T11:46:10;5.90;;;1.90;;
68438;SDS011;55421;51.600;5.718;2022-09-03T11:48:50;7.00;;;1.90;;
68438;SDS011;55421;51.600;5.718;2022-09-03T11:51:42;7.90;;;2.20;;
68438;SDS011;55421;51.600;5.718;2022-09-03T11:56:40;6.00;;;2.00;;
68438;SDS011;55421;51.600;5.718;2022-09-03T12:01:57;2.60;;;1.80;;
68438;SDS011;55421;51.600;5.718;2022-09-03T12:10:42;4.70;;;1.80;;
68438;SDS011;55421;51.600;5.718;2022-09-03T12:13:20;2.80;;;1.60;;
68438;SDS011;55421;51.600;5.718;2022-09-03T12:16:24;3.80;;;2.00;;
68438;SDS011;55421;51.600;5.718;2022-09-03T12:22:13;5.30;;;1.90;;
68438;SDS011;55421;51.600;5.718;2022-09-03T12:24:41;4.00;;;1.80;;
68438;SDS011;55421;51.600;5.718;2022-09-03T12:27:14;5.20;;;1.80;;
68438;SDS011;55421;51.600;5.718;2022-09-03T12:29:51;6.50;;;1.90;;
68438;SDS011;55421;51.600;5.718;2022-09-03T12:32:21;5.20;;;2.20;;
68438;SDS011;55421;51.600;5.718;2022-09-03T12:34:48;5.00;;;2.40;;
68438;SDS011;55421;51.600;5.718;2022-09-03T12:37:23;10.30;;;1.90;;
68438;SDS011;55421;51.600;5.718;2022-09-03T12:39:53;6.20;;;2.10;;
68438;SDS011;55421;51.600;5.718;2022-09-03T12:42:24;2.70;;;2.10;;
68438;SDS011;55421;51.600;5.718;2022-09-03T12:44:53;2.30;;;2.10;;
68438;SDS011;55421;51.600;5.718;2022-09-03T12:47:23;3.80;;;2.00;;
68438;SDS011;55421;51.600;5.718;2022-09-03T12:49:55;2.40;;;1.90;;
68438;SDS011;55421;51.600;5.718;2022-09-03T12:52:32;5.70;;;1.80;;
68438;SDS011;55421;51.600;5.718;2022-09-03T13:00:33;3.90;;;2.20;;
68438;SDS011;55421;51.600;5.718;2022-09-03T13:03:14;4.30;;;1.90;;
68438;SDS011;55421;51.600;5.718;2022-09-03T13:05:57;5.90;;;2.00;;
68438;SDS011;55421;51.600;5.718;2022-09-03T13:08:36;4.30;;;2.00;;
68438;SDS011;55421;51.600;5.718;2022-09-03T13:11:09;6.90;;;2.00;;
68438;SDS011;55421;51.600;5.718;2022-09-03T13:13:36;3.90;;;2.00;;
68438;SDS011;55421;51.600;5.718;2022-09-03T13:16:27;3.30;;;2.30;;
68438;SDS011;55421;51.600;5.718;2022-09-03T13:25:12;3.80;;;2.00;;
68438;SDS011;55421;51.600;5.718;2022-09-03T13:33:53;10.50;;;2.10;;
68438;SDS011;55421;51.600;5.718;2022-09-03T13:36:32;2.70;;;1.90;;
68438;SDS011;55421;51.600;5.718;2022-09-03T13:39:21;3.50;;;1.90;;
68438;SDS011;55421;51.600;5.718;2022-09-03T13:41:57;6.70;;;2.30;;
68438;SDS011;55421;51.600;5.718;2022-09-03T13:44:45;2.70;;;2.30;;
68438;SDS011;55421;51.600;5.718;2022-09-03T13:47:27;2.20;;;2.00;;
68438;SDS011;55421;51.600;5.718;2022-09-03T13:50:09;4.60;;;1.90;;
68438;SDS011;55421;51.600;5.718;2022-09-03T13:53:16;4.30;;;2.10;;
68438;SDS011;55421;51.600;5.718;2022-09-03T13:55:52;2.30;;;1.90;;
68438;SDS011;55421;51.600;5.718;2022-09-03T13:58:45;5.80;;;2.40;;
68438;SDS011;55421;51.600;5.718;2022-09-03T14:04:21;4.80;;;2.40;;
68438;SDS011;55421;51.600;5.718;2022-09-03T14:07:02;2.40;;;2.20;;
68438;SDS011;55421;51.600;5.718;2022-09-03T14:09:48;2.70;;;2.20;;
68438;SDS011;55421;51.600;5.718;2022-09-03T14:15:43;4.90;;;2.30;;
68438;SDS011;55421;51.600;5.718;2022-09-03T14:18:40;3.00;;;2.10;;
68438;SDS011;55421;51.600;5.718;2022-09-03T14:21:55;6.60;;;2.40;;
68438;SDS011;55421;51.600;5.718;2022-09-03T14:24:28;3.50;;;2.10;;
68438;SDS011;55421;51.600;5.718;2022-09-03T14:27:25;3.40;;;2.30;;
68438;SDS011;55421;51.600;5.718;2022-09-03T14:36:45;6.90;;;2.40;;
68438;SDS011;55421;51.600;5.718;2022-09-03T14:39:31;7.00;;;2.70;;
68438;SDS011;55421;51.600;5.718;2022-09-03T14:48:48;4.10;;;2.40;;
68438;SDS011;55421;51.600;5.718;2022-09-03T14:51:43;3.90;;;2.10;;
68438;SDS011;55421;51.600;5.718;2022-09-03T14:54:35;3.40;;;2.30;;
68438;SDS011;55421;51.600;5.718;2022-09-03T14:58:03;3.10;;;2.10;;
68438;SDS011;55421;51.600;5.718;2022-09-03T15:00:41;6.10;;;2.90;;
68438;SDS011;55421;51.600;5.718;2022-09-03T15:09:41;6.20;;;2.70;;
68438;SDS011;55421;51.600;5.718;2022-09-03T15:12:28;3.70;;;2.70;;
68438;SDS011;55421;51.600;5.718;2022-09-03T15:18:02;5.10;;;2.90;;
68438;SDS011;55421;51.600;5.718;2022-09-03T15:20:48;5.20;;;2.80;;
68438;SDS011;55421;51.600;5.718;2022-09-03T15:23:23;4.10;;;2.80;;
68438;SDS011;55421;51.600;5.718;2022-09-03T15:32:11;3.70;;;3.00;;
68438;SDS011;55421;51.600;5.718;2022-09-03T15:41:05;6.80;;;3.30;;
68438;SDS011;55421;51.600;5.718;2022-09-03T15:43:37;5.20;;;2.90;;
68438;SDS011;55421;51.600;5.718;2022-09-03T15:46:12;8.40;;;3.30;;
68438;SDS011;55421;51.600;5.718;2022-09-03T15:49:17;6.00;;;3.60;;
68438;SDS011;55421;51.600;5.718;2022-09-03T15:51:58;4.60;;;3.40;;
68438;SDS011;55421;51.600;5.718;2022-09-03T15:57:34;6.50;;;3.30;;
68438;SDS011;55421;51.600;5.718;2022-09-03T16:00:10;4.10;;;3.40;;
68438;SDS011;55421;51.600;5.718;2022-09-03T16:03:05;4.40;;;3.70;;
68438;SDS011;55421;51.600;5.718;2022-09-03T16:05:46;6.30;;;3.80;;
68438;SDS011;55421;51.600;5.718;2022-09-03T16:08:24;5.20;;;3.60;;
68438;SDS011;55421;51.600;5.718;2022-09-03T16:14:09;10.70;;;3.60;;
68438;SDS011;55421;51.600;5.718;2022-09-03T16:26:36;4.40;;;3.00;;
68438;SDS011;55421;51.600;5.718;2022-09-03T16:29:14;4.30;;;3.00;;
68438;SDS011;55421;51.600;5.718;2022-09-03T16:32:05;5.60;;;2.80;;
68438;SDS011;55421;51.600;5.718;2022-09-03T16:35:23;4.50;;;3.10;;
68438;SDS011;55421;51.600;5.718;2022-09-03T16:40:57;5.70;;;3.00;;
68438;SDS011;55421;51.600;5.718;2022-09-03T16:43:48;6.50;;;2.90;;
68438;SDS011;55421;51.600;5.718;2022-09-03T16:56:09;5.00;;;3.00;;
68438;SDS011;55421;51.600;5.718;2022-09-03T16:58:57;4.70;;;2.80;;
68438;SDS011;55421;51.600;5.718;2022-09-03T17:08:18;6.10;;;3.10;;
68438;SDS011;55421;51.600;5.718;2022-09-03T17:17:12;5.20;;;3.70;;
68438;SDS011;55421;51.600;5.718;2022-09-03T17:20:12;6.70;;;3.60;;
68438;SDS011;55421;51.600;5.718;2022-09-03T17:23:13;6.50;;;3.60;;
68438;SDS011;55421;51.600;5.718;2022-09-03T17:25:59;6.10;;;4.30;;
68438;SDS011;55421;51.600;5.718;2022-09-03T17:34:39;7.20;;;4.10;;
68438;SDS011;55421;51.600;5.718;2022-09-03T17:37:39;5.50;;;4.10;;
68438;SDS011;55421;51.600;5.718;2022-09-03T17:40:24;7.70;;;3.90;;
68438;SDS011;55421;51.600;5.718;2022-09-03T17:43:21;9.20;;;4.40;;
68438;SDS011;55421;51.600;5.718;2022-09-03T17:46:34;6.10;;;4.10;;
68438;SDS011;55421;51.600;5.718;2022-09-03T17:49:22;4.90;;;3.70;;
68438;SDS011;55421;51.600;5.718;2022-09-03T17:52:01;4.80;;;3.80;;
68438;SDS011;55421;51.600;5.718;2022-09-03T17:54:42;8.00;;;4.00;;
68438;SDS011;55421;51.600;5.718;2022-09-03T18:00:10;4.70;;;4.20;;
68438;SDS011;55421;51.600;5.718;2022-09-03T18:03:00;5.10;;;3.50;;
68438;SDS011;55421;51.600;5.718;2022-09-03T18:05:41;10.50;;;4.10;;
68438;SDS011;55421;51.600;5.718;2022-09-03T18:08:21;5.00;;;3.80;;
68438;SDS011;55421;51.600;5.718;2022-09-03T18:11:08;15.00;;;4.60;;
68438;SDS011;55421;51.600;5.718;2022-09-03T18:14:00;16.40;;;5.20;;
68438;SDS011;55421;51.600;5.718;2022-09-03T18:16:40;14.70;;;5.30;;
68438;SDS011;55421;51.600;5.718;2022-09-03T18:22:01;17.70;;;5.00;;
68438;SDS011;55421;51.600;5.718;2022-09-03T18:24:57;7.50;;;4.80;;
68438;SDS011;55421;51.600;5.718;2022-09-03T18:27:47;11.70;;;4.90;;
68438;SDS011;55421;51.600;5.718;2022-09-03T18:30:37;11.50;;;5.00;;
68438;SDS011;55421;51.600;5.718;2022-09-03T18:33:23;10.40;;;5.50;;
68438;SDS011;55421;51.600;5.718;2022-09-03T18:36:11;14.60;;;5.60;;
68438;SDS011;55421;51.600;5.718;2022-09-03T18:39:08;10.20;;;5.70;;
68438;SDS011;55421;51.600;5.718;2022-09-03T18:45:37;15.10;;;5.90;;
68438;SDS011;55421;51.600;5.718;2022-09-03T18:51:58;11.00;;;6.80;;
68438;SDS011;55421;51.600;5.718;2022-09-03T18:55:13;15.10;;;6.80;;
68438;SDS011;55421;51.600;5.718;2022-09-03T18:58:15;15.50;;;6.80;;
68438;SDS011;55421;51.600;5.718;2022-09-03T19:01:37;12.00;;;3.70;;
68438;SDS011;55421;51.600;5.718;2022-09-03T19:08:08;10.00;;;6.10;;
68438;SDS011;55421;51.600;5.718;2022-09-03T19:11:28;8.70;;;6.20;;
68438;SDS011;55421;51.600;5.718;2022-09-03T19:14:41;13.40;;;6.20;;
68438;SDS011;55421;51.600;5.718;2022-09-03T19:21:19;12.10;;;7.90;;
68438;SDS011;55421;51.600;5.718;2022-09-03T19:24:12;9.70;;;7.90;;
68438;SDS011;55421;51.600;5.718;2022-09-03T19:27:09;12.40;;;8.20;;
68438;SDS011;55421;51.600;5.718;2022-09-03T19:30:26;10.60;;;6.90;;
68438;SDS011;55421;51.600;5.718;2022-09-03T19:36:43;13.80;;;8.10;;
68438;SDS011;55421;51.600;5.718;2022-09-03T19:46:48;11.60;;;7.40;;
68438;SDS011;55421;51.600;5.718;2022-09-03T19:53:00;14.00;;;8.90;;
68438;SDS011;55421;51.600;5.718;2022-09-03T19:58:42;16.10;;;8.90;;